Time;durP1;ratioP1;P1;durP2;ratioP2;P2;SDS_P1;SDS_P2;PMS_P1;PMS_P2;Temp;Humidity;BMP_temperature;BMP_pressure;BME280_temperature;BME280_humidity;BME280_pressure;Samples;Min_cycle;Max_cycle;Signal;HPM_P1;HPM_P2
2021/12/24 00:00:34;;;;;;;;;;;;;;;7.44;63.00;100325.75;5036367;28;19956;-78
2021/12/24 00:02:59;;;;;;;;;;;;;;;7.43;63.01;100318.75;5064654;28;19929;-78
2021/12/24 00:05:25;;;;;;;;;;;;;;;7.45;63.02;100322.31;5053143;28;20041;-78
2021/12/24 00:07:52;;;;;;;;;;;;;;;7.49;63.02;100316.38;5055310;28;20391;-78
2021/12/24 00:10:17;;;;;;;;;;;;;;;7.56;63.01;100310.53;5053028;28;19925;-77
2021/12/24 00:12:48;;;;;;;;;;;;;;;7.64;63.03;100305.59;5053015;28;19928;-78
2021/12/24 00:17:48;;;;;;;;;;;;;;;7.69;63.02;100311.88;5062305;28;19920;-78
2021/12/24 00:20:52;;;;;;;;;;;;;;;7.69;63.03;100304.03;5058064;28;19925;-78
2021/12/24 00:36:46;;;;;;;;;;;;;;;7.99;63.13;100290.31;5064969;28;19967;-79
2021/12/24 00:39:12;;;;;;;;;;;;;;;7.95;63.13;100288.41;5058819;28;19948;-79
2021/12/24 00:41:37;;;;;;;;;;;;;;;8.09;63.12;100295.97;5058255;28;19928;-79
2021/12/24 00:44:03;;;;;;;;;;;;;;;8.15;63.13;100294.41;5060933;28;19929;-77
2021/12/24 00:46:28;;;;;;;;;;;;;;;8.18;63.14;100291.88;5068629;28;20275;-76
2021/12/24 00:49:00;;;;;;;;;;;;;;;8.27;63.13;100293.09;5075908;28;19974;-77
2021/12/24 00:56:54;;;;;;;;;;;;;;;8.30;63.19;100302.84;5057890;28;19932;-78
2021/12/24 00:59:21;;;;;;;;;;;;;;;8.39;63.22;100307.50;5064958;28;19917;-77
2021/12/24 01:01:46;;;;;;;;;;;;;;;8.37;63.24;100301.31;5049709;28;20012;-77
2021/12/24 01:04:12;;;;;;;;;;;;;;;8.39;63.23;100312.75;5039137;28;19967;-79
2021/12/24 01:06:38;;;;;;;;;;;;;;;8.42;63.28;100302.38;5040129;28;19932;-78
2021/12/24 01:09:06;;;;;;;;;;;;;;;8.46;63.31;100306.94;5055556;28;19929;-78
2021/12/24 01:11:32;;;;;;;;;;;;;;;8.40;63.28;100306.66;5055830;28;19920;-78
2021/12/24 01:13:59;;;;;;;;;;;;;;;8.44;63.29;100312.13;5074121;28;19924;-78
2021/12/24 01:16:32;;;;;;;;;;;;;;;8.40;63.31;100315.44;5075241;28;20414;-79
2021/12/24 01:19:08;;;;;;;;;;;;;;;8.39;63.31;100320.63;5074661;28;19959;-78
2021/12/24 01:21:59;;;;;;;;;;;;;;;8.43;63.30;100312.94;5057676;28;19956;-78
2021/12/24 01:24:28;;;;;;;;;;;;;;;8.48;63.29;100318.34;5063623;28;19920;-78
2021/12/24 01:27:16;;;;;;;;;;;;;;;8.47;63.31;100321.84;5038215;28;19917;-77
2021/12/24 01:42:49;;;;;;;;;;;;;;;8.51;63.29;100315.84;5075853;28;19921;-78
2021/12/24 01:45:14;;;;;;;;;;;;;;;8.51;63.29;100312.34;5055974;28;19964;-78
2021/12/24 01:47:42;;;;;;;;;;;;;;;8.49;63.30;100320.16;5061584;28;20461;-78
2021/12/24 01:50:07;;;;;;;;;;;;;;;8.50;63.29;100327.19;5051073;28;19921;-78
2021/12/24 01:52:33;;;;;;;;;;;;;;;8.52;63.29;100316.75;5038425;28;20346;-77
2021/12/24 01:54:58;;;;;;;;;;;;;;;8.50;63.30;100318.41;5037952;28;19932;-78
2021/12/24 01:57:23;;;;;;;;;;;;;;;8.46;63.31;100314.81;5038075;28;19929;-78
2021/12/24 01:59:48;;;;;;;;;;;;;;;8.50;63.29;100319.34;5039048;28;19920;-79
2021/12/24 02:02:14;;;;;;;;;;;;;;;8.48;63.30;100325.34;5054206;28;19925;-78
2021/12/24 02:04:39;;;;;;;;;;;;;;;8.50;63.30;100323.66;5069710;28;19927;-77
2021/12/24 02:07:04;;;;;;;;;;;;;;;8.49;63.31;100324.53;5058260;28;20014;-78
2021/12/24 02:09:30;;;;;;;;;;;;;;;8.47;63.32;100316.59;5077287;28;19916;-78
2021/12/24 02:11:56;;;;;;;;;;;;;;;8.45;63.34;100331.38;5059044;28;19932;-78
2021/12/24 02:14:24;;;;;;;;;;;;;;;8.44;63.34;100329.59;5071262;28;19920;-78
2021/12/24 02:30:29;;;;;;;;;;;;;;;8.38;63.43;100329.34;5092814;28;19997;-78
2021/12/24 02:32:54;;;;;;;;;;;;;;;8.33;63.46;100331.81;5051915;28;19924;-78
2021/12/24 02:35:19;;;;;;;;;;;;;;;8.30;63.49;100325.53;5063436;28;19921;-79
2021/12/24 02:37:48;;;;;;;;;;;;;;;8.35;63.49;100330.13;5056439;28;19920;-78
2021/12/24 02:40:13;;;;;;;;;;;;;;;8.31;63.52;100322.06;5060144;28;20487;-78
2021/12/24 02:42:39;;;;;;;;;;;;;;;8.30;63.56;100321.19;5065040;28;19991;-78
2021/12/24 02:45:06;;;;;;;;;;;;;;;8.21;63.62;100321.75;5064887;28;19916;-78
2021/12/24 02:47:54;;;;;;;;;;;;;;;8.21;63.64;100315.59;5052068;28;20024;-77
2021/12/24 02:55:31;;;;;;;;;;;;;;;8.30;63.79;100304.53;5075053;28;19927;-77
2021/12/24 02:57:57;;;;;;;;;;;;;;;8.29;63.87;100306.28;5056437;28;19924;-78
2021/12/24 03:00:26;;;;;;;;;;;;;;;8.25;63.95;100309.66;5058624;28;20272;-79
2021/12/24 03:02:52;;;;;;;;;;;;;;;8.30;64.04;100315.94;5072957;28;20356;-77
2021/12/24 03:05:19;;;;;;;;;;;;;;;8.28;64.15;100320.22;5072980;28;19974;-78
2021/12/24 03:07:54;;;;;;;;;;;;;;;8.31;64.26;100316.84;5056390;28;20364;-78
2021/12/24 03:10:20;;;;;;;;;;;;;;;8.27;64.39;100321.97;5063715;28;20353;-78
2021/12/24 03:12:47;;;;;;;;;;;;;;;8.26;64.52;100317.56;5053591;28;19921;-79
2021/12/24 03:15:14;;;;;;;;;;;;;;;8.30;64.67;100304.53;5053644;28;19921;-79
2021/12/24 03:17:49;;;;;;;;;;;;;;;8.32;64.86;100309.03;5062077;28;19960;-77
2021/12/24 03:20:21;;;;;;;;;;;;;;;8.29;65.15;100310.66;5052983;28;20011;-77
2021/12/24 03:23:10;;;;;;;;;;;;;;;8.30;65.45;100315.94;5071724;28;20260;-77
2021/12/24 03:25:36;;;;;;;;;;;;;;;8.29;65.83;100316.78;5073019;28;19920;-77
2021/12/24 03:28:01;;;;;;;;;;;;;;;8.29;66.27;100319.41;5057810;28;19931;-76
2021/12/24 03:30:26;;;;;;;;;;;;;;;8.30;66.87;100320.28;5064564;28;19921;-77
2021/12/24 03:32:52;;;;;;;;;;;;;;;8.29;67.59;100313.28;5052506;28;19964;-78
2021/12/24 03:35:17;;;;;;;;;;;;;;;8.30;68.34;100312.41;5060099;28;19928;-78
2021/12/24 03:37:42;;;;;;;;;;;;;;;8.30;69.39;100310.69;5073112;28;19928;-78
2021/12/24 03:40:08;;;;;;;;;;;;;;;8.35;70.90;100318.75;5053869;28;19921;-77
2021/12/24 03:42:37;;;;;;;;;;;;;;;8.37;73.03;100320.56;5036270;28;19924;-77
2021/12/24 03:45:18;;;;;;;;;;;;;;;8.32;74.32;100316.88;5055842;28;19959;-77
2021/12/24 03:47:52;;;;;;;;;;;;;;;8.33;75.30;100321.31;5056940;28;19927;-78
2021/12/24 03:50:17;;;;;;;;;;;;;;;8.33;76.44;100320.41;5052853;28;19916;-78
2021/12/24 03:55:26;;;;;;;;;;;;;;;8.30;78.17;100310.69;5056279;28;19928;-79
2021/12/24 03:57:56;;;;;;;;;;;;;;;8.29;79.15;100314.16;5073023;28;19921;-77
2021/12/24 04:00:27;;;;;;;;;;;;;;;8.26;80.32;100309.72;5054721;28;19921;-77
2021/12/24 04:02:53;;;;;;;;;;;;;;;8.32;81.42;100311.63;5072063;28;19920;-78
2021/12/24 04:05:18;;;;;;;;;;;;;;;8.29;82.74;100310.66;5052365;28;20103;-79
2021/12/24 04:07:46;;;;;;;;;;;;;;;8.29;83.84;100308.03;5052375;28;19924;-77
2021/12/24 04:12:36;;;;;;;;;;;;;;;8.32;87.55;100318.63;5053680;28;20285;-78
2021/12/24 04:15:02;;;;;;;;;;;;;;;8.28;89.71;100317.59;5035815;28;19933;-76
2021/12/24 04:17:32;;;;;;;;;;;;;;;8.29;91.55;100315.91;5058510;28;19978;-77
2021/12/24 04:25:25;;;;;;;;;;;;;;;8.22;98.24;100318.28;5053603;28;20354;-78
2021/12/24 04:27:54;;;;;;;;;;;;;;;8.21;100.00;100310.38;5070838;28;19924;-78
2021/12/24 04:30:25;;;;;;;;;;;;;;;8.17;100.00;100311.06;5055601;28;19960;-77
2021/12/24 05:04:47;;;;;;;;;;;;;;;8.08;100.00;100296.78;5038490;28;20343;-78
2021/12/24 05:10:01;;;;;;;;;;;;;;;8.06;100.00;100293.22;5047825;28;19920;-78
2021/12/24 05:12:29;;;;;;;;;;;;;;;8.06;100.00;100287.06;5061112;28;20007;-78
2021/12/24 05:14:55;;;;;;;;;;;;;;;7.97;100.00;100297.22;5058923;28;19928;-78
2021/12/24 05:17:44;;;;;;;;;;;;;;;7.99;100.00;100293.84;5049463;28;19931;-78
2021/12/24 05:22:53;;;;;;;;;;;;;;;8.00;100.00;100294.72;5089901;28;19974;-78
2021/12/24 05:25:19;;;;;;;;;;;;;;;7.96;100.00;100295.47;5059696;28;19920;-78
2021/12/24 05:27:51;;;;;;;;;;;;;;;7.98;100.00;100288.53;5081005;28;19927;-79
2021/12/24 05:30:20;;;;;;;;;;;;;;;7.95;100.00;100298.91;5076609;28;20034;-78
2021/12/24 05:32:45;;;;;;;;;;;;;;;7.98;100.00;100301.63;5069690;28;19997;-78
2021/12/24 05:35:10;;;;;;;;;;;;;;;7.96;100.00;100298.06;5061927;28;19928;-78
2021/12/24 05:37:37;;;;;;;;;;;;;;;7.93;100.00;100303.19;5063218;28;19920;-77
2021/12/24 05:40:03;;;;;;;;;;;;;;;7.90;100.00;100310.09;5058308;28;20357;-78
2021/12/24 05:42:31;;;;;;;;;;;;;;;7.85;100.00;100311.66;5068399;28;20011;-77
2021/12/24 05:45:02;;;;;;;;;;;;;;;7.87;100.00;100312.59;5057763;28;19928;-77
2021/12/24 05:47:29;;;;;;;;;;;;;;;7.83;100.00;100321.19;5060159;28;20348;-78
2021/12/24 05:49:54;;;;;;;;;;;;;;;7.80;100.00;100317.53;5058270;28;20423;-77
2021/12/24 05:52:20;;;;;;;;;;;;;;;7.80;100.00;100318.47;5058211;28;19955;-78
2021/12/24 05:54:45;;;;;;;;;;;;;;;7.80;100.00;100320.16;5067548;28;19920;-76
2021/12/24 05:57:10;;;;;;;;;;;;;;;7.76;100.00;100316.53;5059357;28;20018;-77
2021/12/24 05:59:35;;;;;;;;;;;;;;;7.67;100.00;100319.69;5065557;28;20349;-75
2021/12/24 06:02:12;;;;;;;;;;;;;;;7.59;100.00;100330.72;5054431;28;19985;-78
2021/12/24 06:04:38;;;;;;;;;;;;;;;7.49;100.00;100327.72;5057380;28;20121;-77
2021/12/24 06:07:03;;;;;;;;;;;;;;;7.49;100.00;100332.97;5058032;28;20306;-78
2021/12/24 06:09:30;;;;;;;;;;;;;;;7.44;100.00;100334.53;5057245;28;19931;-78
2021/12/24 06:11:55;;;;;;;;;;;;;;;7.46;100.00;100348.56;5057886;28;20563;-79
2021/12/24 06:14:23;;;;;;;;;;;;;;;7.44;100.00;100345.00;5074849;28;19966;-77
2021/12/24 06:16:59;;;;;;;;;;;;;;;7.46;100.00;100340.72;5076141;28;19920;-77
2021/12/24 06:19:26;;;;;;;;;;;;;;;7.46;100.00;100343.34;5058129;28;19967;-78
2021/12/24 06:21:52;;;;;;;;;;;;;;;7.47;100.00;100355.59;5066678;28;19927;-78
2021/12/24 06:24:18;;;;;;;;;;;;;;;7.48;100.00;100356.50;5067650;28;19939;-78
2021/12/24 06:26:44;;;;;;;;;;;;;;;7.49;100.00;100361.78;5072452;28;20106;-78
2021/12/24 06:29:10;;;;;;;;;;;;;;;7.50;100.00;100367.91;5059468;28;19920;-78
2021/12/24 06:31:35;;;;;;;;;;;;;;;7.49;100.00;100367.03;5066310;28;20447;-78
2021/12/24 06:34:00;;;;;;;;;;;;;;;7.49;100.00;100379.25;5060306;28;20039;-78
2021/12/24 06:36:33;;;;;;;;;;;;;;;7.48;100.00;100378.34;5076467;28;19931;-78
2021/12/24 06:39:00;;;;;;;;;;;;;;;7.48;100.00;100378.34;5059381;28;19920;-79
2021/12/24 06:41:26;;;;;;;;;;;;;;;7.47;100.00;100376.56;5064579;28;19920;-77
2021/12/24 06:43:54;;;;;;;;;;;;;;;7.43;100.00;100379.88;5060030;28;19935;-78
2021/12/24 06:46:19;;;;;;;;;;;;;;;7.35;100.00;100386.53;5061243;28;19924;-77
2021/12/24 06:48:45;;;;;;;;;;;;;;;7.33;100.00;100377.69;5077243;28;19920;-77
2021/12/24 06:51:13;;;;;;;;;;;;;;;7.31;100.00;100376.75;5077448;28;19920;-77
2021/12/24 06:53:38;;;;;;;;;;;;;;;7.24;100.00;100375.63;5077038;28;19924;-77
2021/12/24 06:56:04;;;;;;;;;;;;;;;7.21;100.00;100379.81;5062331;28;20015;-76
2021/12/24 06:58:29;;;;;;;;;;;;;;;7.19;100.00;100374.50;5069828;28;19930;-77
2021/12/24 07:00:55;;;;;;;;;;;;;;;7.18;100.00;100371.00;5089575;28;20684;-77
2021/12/24 07:03:20;;;;;;;;;;;;;;;7.12;100.00;100380.34;5061829;28;20041;-77
2021/12/24 07:05:46;;;;;;;;;;;;;;;7.07;100.00;100382.75;5077815;28;19948;-77
2021/12/24 07:08:12;;;;;;;;;;;;;;;7.04;100.00;100385.25;5055485;28;19981;-76
2021/12/24 07:10:40;;;;;;;;;;;;;;;7.03;100.00;100388.69;5056709;28;19921;-77
2021/12/24 07:13:07;;;;;;;;;;;;;;;7.07;100.00;100397.56;5056311;28;19921;-77
2021/12/24 07:15:32;;;;;;;;;;;;;;;7.02;100.00;100397.34;5072147;28;19920;-77
2021/12/24 07:17:59;;;;;;;;;;;;;;;6.97;100.00;100393.66;5076234;28;19920;-77
2021/12/24 07:20:24;;;;;;;;;;;;;;;6.97;100.00;100398.88;5060101;28;19928;-78
2021/12/24 07:22:50;;;;;;;;;;;;;;;6.98;100.00;100398.94;5060048;28;19977;-78
2021/12/24 07:25:15;;;;;;;;;;;;;;;6.95;100.00;100409.28;5059247;28;19931;-78
2021/12/24 07:27:42;;;;;;;;;;;;;;;6.97;100.00;100409.34;5075731;28;20002;-78
2021/12/24 07:30:10;;;;;;;;;;;;;;;6.92;100.00;100410.91;5077144;28;19931;-77
2021/12/24 07:32:39;;;;;;;;;;;;;;;7.02;100.00;100418.28;5061583;28;20003;-78
2021/12/24 07:35:06;;;;;;;;;;;;;;;6.99;100.00;100413.84;5075049;28;20268;-77
2021/12/24 07:37:32;;;;;;;;;;;;;;;6.94;100.00;100410.09;5056912;28;19928;-76
2021/12/24 07:39:58;;;;;;;;;;;;;;;6.93;100.00;100416.19;5058768;28;20241;-76
2021/12/24 07:42:27;;;;;;;;;;;;;;;6.86;100.00;100415.84;5057415;28;19943;-76
2021/12/24 07:44:52;;;;;;;;;;;;;;;6.93;100.00;100423.13;5058041;28;20352;-77
2021/12/24 07:47:27;;;;;;;;;;;;;;;6.93;100.00;100425.75;5059269;28;19921;-77
2021/12/24 07:50:00;;;;;;;;;;;;;;;6.85;100.00;100417.56;5059516;28;19921;-77
2021/12/24 07:52:25;;;;;;;;;;;;;;;6.86;100.00;100415.84;5058050;28;20441;-76
2021/12/24 07:54:54;;;;;;;;;;;;;;;6.89;100.00;100418.59;5056131;28;19931;-77
2021/12/24 07:57:20;;;;;;;;;;;;;;;6.89;100.00;100421.22;5056294;28;19925;-77
2021/12/24 07:59:45;;;;;;;;;;;;;;;6.92;100.00;100421.38;5059117;28;19920;-78
2021/12/24 08:02:14;;;;;;;;;;;;;;;6.97;100.00;100425.06;5060521;28;19996;-78
2021/12/24 08:04:39;;;;;;;;;;;;;;;6.96;100.00;100432.03;5060769;28;19924;-77
2021/12/24 08:07:05;;;;;;;;;;;;;;;6.97;100.00;100431.19;5059989;28;19920;-77
2021/12/24 08:09:32;;;;;;;;;;;;;;;6.96;100.00;100428.50;5076451;28;19962;-77
2021/12/24 08:11:59;;;;;;;;;;;;;;;7.00;100.00;100435.66;5071035;28;20011;-78
2021/12/24 08:14:24;;;;;;;;;;;;;;;6.95;100.00;100435.47;5059594;28;19935;-77
2021/12/24 08:16:49;;;;;;;;;;;;;;;7.00;100.00;100440.91;5056449;28;19924;-78
2021/12/24 08:19:18;;;;;;;;;;;;;;;7.03;100.00;100446.28;5087239;28;19927;-78
2021/12/24 08:21:45;;;;;;;;;;;;;;;7.01;100.00;100446.22;5075860;28;20003;-78
2021/12/24 08:24:10;;;;;;;;;;;;;;;7.08;100.00;100439.50;5074873;28;19959;-77
2021/12/24 08:26:36;;;;;;;;;;;;;;;7.12;100.00;100441.44;5068807;28;19972;-77
2021/12/24 08:29:02;;;;;;;;;;;;;;;7.19;100.00;100438.28;5066220;28;19936;-76
2021/12/24 08:31:27;;;;;;;;;;;;;;;7.31;100.00;100439.63;5075728;28;19920;-78
2021/12/24 08:33:52;;;;;;;;;;;;;;;7.33;100.00;100433.63;5065522;28;19921;-77
2021/12/24 08:36:18;;;;;;;;;;;;;;;7.36;100.00;100435.44;5057301;28;19920;-78
2021/12/24 08:38:45;;;;;;;;;;;;;;;7.36;100.00;100439.00;5069474;28;19970;-77
2021/12/24 08:41:11;;;;;;;;;;;;;;;7.39;100.00;100438.19;5075490;28;20003;-77
2021/12/24 08:43:38;;;;;;;;;;;;;;;7.43;100.00;100437.50;5093120;28;19916;-77
2021/12/24 08:46:05;;;;;;;;;;;;;;;7.47;100.00;100438.53;5059558;28;19924;-77
2021/12/24 08:48:32;;;;;;;;;;;;;;;7.57;100.00;100431.94;5077970;28;19943;-77
2021/12/24 08:50:57;;;;;;;;;;;;;;;7.59;100.00;100436.41;5059819;28;19973;-77
2021/12/24 08:53:23;;;;;;;;;;;;;;;7.62;100.00;100435.66;5059515;28;19925;-78
2021/12/24 08:55:48;;;;;;;;;;;;;;;7.63;100.00;100446.22;5058815;28;19921;-78
2021/12/24 08:58:15;;;;;;;;;;;;;;;7.64;100.00;100437.50;5058865;28;19931;-77
2021/12/24 09:00:41;;;;;;;;;;;;;;;7.66;100.00;100440.19;5059256;28;19927;-77
2021/12/24 09:03:06;;;;;;;;;;;;;;;7.70;100.00;100447.34;5059250;28;20345;-77
2021/12/24 09:05:32;;;;;;;;;;;;;;;7.76;100.00;100442.34;5077990;28;19927;-77
2021/12/24 09:07:58;;;;;;;;;;;;;;;7.76;100.00;100446.72;5068651;28;19928;-76
2021/12/24 09:10:24;;;;;;;;;;;;;;;7.76;100.00;100444.97;5070550;28;19920;-76
2021/12/24 09:12:50;;;;;;;;;;;;;;;7.77;100.00;100441.53;5058741;28;19928;-76
2021/12/24 09:15:18;;;;;;;;;;;;;;;7.80;100.00;100440.75;5074277;28;19924;-76
2021/12/24 09:17:46;;;;;;;;;;;;;;;7.79;100.00;100439.84;5076727;28;19920;-79
2021/12/24 09:20:22;;;;;;;;;;;;;;;7.79;100.00;100439.84;5063625;28;19951;-79
2021/12/24 09:22:49;;;;;;;;;;;;;;;7.80;100.00;100444.28;5059398;28;19920;-79
2021/12/24 09:25:15;;;;;;;;;;;;;;;7.79;100.00;100444.22;5070648;28;19933;-79
2021/12/24 09:27:42;;;;;;;;;;;;;;;7.85;100.00;100437.50;5082038;28;19920;-79
2021/12/24 09:30:08;;;;;;;;;;;;;;;7.85;100.00;100442.72;5077299;28;20264;-79
2021/12/24 09:32:34;;;;;;;;;;;;;;;7.85;100.00;100437.50;5078700;28;19920;-79
2021/12/24 09:35:00;;;;;;;;;;;;;;;7.89;100.00;100434.16;5074103;28;19927;-76
2021/12/24 09:37:26;;;;;;;;;;;;;;;7.93;100.00;100437.78;5068412;28;19959;-77
2021/12/24 09:39:51;;;;;;;;;;;;;;;7.93;100.00;100439.53;5072494;28;19960;-77
2021/12/24 09:42:16;;;;;;;;;;;;;;;7.95;100.00;100441.34;5076623;28;20349;-77
2021/12/24 09:44:42;;;;;;;;;;;;;;;7.96;100.00;100442.28;5076840;28;19921;-77
2021/12/24 09:47:07;;;;;;;;;;;;;;;7.90;100.00;100440.28;5078386;28;19969;-78
2021/12/24 09:49:33;;;;;;;;;;;;;;;7.94;100.00;100451.78;5074776;28;19921;-78
2021/12/24 09:52:00;;;;;;;;;;;;;;;7.96;100.00;100443.16;5057760;28;19921;-77
2021/12/24 09:54:25;;;;;;;;;;;;;;;7.97;100.00;100452.81;5061264;28;19928;-78
2021/12/24 09:56:52;;;;;;;;;;;;;;;7.95;100.00;100453.59;5041382;28;19928;-78
2021/12/24 09:59:19;;;;;;;;;;;;;;;7.91;100.00;100460.44;5058611;28;19924;-79
2021/12/24 10:01:58;;;;;;;;;;;;;;;7.91;100.00;100471.81;5072186;28;19924;-79
2021/12/24 10:04:25;;;;;;;;;;;;;;;7.87;100.00;100467.28;5058514;28;19920;-78
2021/12/24 10:06:52;;;;;;;;;;;;;;;7.91;100.00;100476.19;5075452;28;19924;-78
2021/12/24 10:09:27;;;;;;;;;;;;;;;7.87;100.00;100471.63;5057789;28;19982;-78
2021/12/24 10:11:56;;;;;;;;;;;;;;;7.94;100.00;100478.00;5077761;28;19920;-78
2021/12/24 10:14:27;;;;;;;;;;;;;;;7.93;100.00;100482.38;5077522;28;19920;-78
2021/12/24 10:16:54;;;;;;;;;;;;;;;7.91;100.00;100479.69;5067551;28;19927;-78
2021/12/24 10:19:21;;;;;;;;;;;;;;;7.93;100.00;100486.72;5076179;28;19970;-79
2021/12/24 10:21:49;;;;;;;;;;;;;;;7.92;100.00;100485.81;5057652;28;20015;-78
2021/12/24 10:24:18;;;;;;;;;;;;;;;7.96;100.00;100485.13;5066018;28;20269;-78
2021/12/24 10:26:45;;;;;;;;;;;;;;;7.98;100.00;100490.41;5075226;28;20305;-79
2021/12/24 10:29:31;;;;;;;;;;;;;;;8.00;100.00;100467.78;5058630;28;19924;-78
2021/12/24 10:31:57;;;;;;;;;;;;;;;8.02;100.00;100484.47;5059271;28;20578;-78
2021/12/24 10:34:27;;;;;;;;;;;;;;;8.03;100.00;100484.53;5077448;28;19920;-78
2021/12/24 10:36:57;;;;;;;;;;;;;;;8.09;100.00;100487.41;5076635;28;19920;-78
2021/12/24 10:39:25;;;;;;;;;;;;;;;8.09;100.00;100481.25;5077126;28;20320;-78
2021/12/24 10:41:52;;;;;;;;;;;;;;;8.11;100.00;100476.97;5072951;28;19924;-77
2021/12/24 10:44:18;;;;;;;;;;;;;;;8.11;100.00;100481.31;5076732;28;19935;-78
2021/12/24 10:46:56;;;;;;;;;;;;;;;8.20;100.00;100486.91;5070618;28;20268;-78
2021/12/24 10:49:37;;;;;;;;;;;;;;;8.25;100.00;100485.41;5076457;28;20336;-78
2021/12/24 10:55:00;;;;;;;;;;;;;;;8.30;100.00;100477.69;5074073;28;19927;-78
2021/12/24 10:57:28;;;;;;;;;;;;;;;8.29;100.00;100483.78;5060842;28;20384;-78
2021/12/24 10:59:56;;;;;;;;;;;;;;;8.31;100.00;100484.72;5057664;28;19920;-78
2021/12/24 11:02:26;;;;;;;;;;;;;;;8.35;100.00;100481.41;5057707;28;20457;-77
2021/12/24 11:04:53;;;;;;;;;;;;;;;8.40;100.00;100485.09;5056205;28;19924;-77
2021/12/24 11:07:38;;;;;;;;;;;;;;;8.43;100.00;100479.97;5054664;28;19925;-78
2021/12/24 11:10:12;;;;;;;;;;;;;;;8.43;100.00;100490.44;5075207;28;19991;-78
2021/12/24 11:12:57;;;;;;;;;;;;;;;8.50;100.00;100476.78;5062603;28;20378;-78
2021/12/24 11:15:30;;;;;;;;;;;;;;;8.51;100.00;100486.41;5055340;28;20058;-79
2021/12/24 11:17:58;;;;;;;;;;;;;;;8.42;100.00;100486.94;5056667;28;19920;-79
2021/12/24 11:20:24;;;;;;;;;;;;;;;8.37;100.00;100492.84;5055455;28;19927;-78
2021/12/24 11:22:56;;;;;;;;;;;;;;;8.33;100.00;100490.91;5076495;28;20368;-79
2021/12/24 11:25:23;;;;;;;;;;;;;;;8.33;100.00;100493.53;5094454;28;19927;-79
2021/12/24 11:27:49;;;;;;;;;;;;;;;8.33;100.00;100488.28;5074457;28;19920;-78
2021/12/24 11:30:19;;;;;;;;;;;;;;;8.30;100.00;100482.94;5055408;28;20297;-78
2021/12/24 11:32:45;;;;;;;;;;;;;;;8.27;100.00;100481.97;5055662;28;19948;-77
2021/12/24 11:35:13;;;;;;;;;;;;;;;8.30;100.00;100493.41;5056673;28;19921;-77
2021/12/24 11:37:46;;;;;;;;;;;;;;;8.27;100.00;100487.22;5067310;28;20491;-78
2021/12/24 11:40:13;;;;;;;;;;;;;;;8.22;100.00;100480.03;5057064;28;20357;-78
2021/12/24 11:42:46;;;;;;;;;;;;;;;8.26;100.00;100479.28;5056356;28;19947;-78
2021/12/24 11:45:12;;;;;;;;;;;;;;;8.22;100.00;100475.66;5056461;28;19956;-78
2021/12/24 11:47:41;;;;;;;;;;;;;;;8.21;100.00;100475.59;5056187;28;19921;-78
2021/12/24 11:50:06;;;;;;;;;;;;;;;8.24;100.00;100476.63;5056412;28;19927;-78
2021/12/24 11:52:32;;;;;;;;;;;;;;;8.26;100.00;100477.59;5055890;28;20008;-79
2021/12/24 11:54:58;;;;;;;;;;;;;;;8.29;100.00;100470.66;5055649;28;19925;-78
2021/12/24 11:57:24;;;;;;;;;;;;;;;8.26;100.00;100477.59;5056496;28;19921;-79
2021/12/24 11:59:50;;;;;;;;;;;;;;;8.31;100.00;100466.34;5056441;28;19924;-78
2021/12/24 12:02:40;;;;;;;;;;;;;;;8.42;100.00;100467.66;5036195;28;19925;-78
2021/12/24 12:05:26;;;;;;;;;;;;;;;8.41;100.00;100476.38;5049570;28;19920;-79
2021/12/24 12:08:13;;;;;;;;;;;;;;;8.37;100.00;100469.22;5044923;28;19925;-78
2021/12/24 12:10:48;;;;;;;;;;;;;;;8.39;100.00;100472.78;5052669;28;19960;-78
2021/12/24 12:13:34;;;;;;;;;;;;;;;8.33;100.00;100467.31;5057187;28;20468;-78
2021/12/24 12:15:59;;;;;;;;;;;;;;;8.38;100.00;100481.53;5076484;28;19920;-79
2021/12/24 12:18:47;;;;;;;;;;;;;;;8.39;100.00;100472.78;5076678;28;19928;-79
2021/12/24 12:21:20;;;;;;;;;;;;;;;8.43;100.00;100464.22;5076565;28;20263;-78
2021/12/24 12:26:38;;;;;;;;;;;;;;;8.48;100.00;100472.28;5078010;28;19931;-78
2021/12/24 12:29:34;;;;;;;;;;;;;;;8.47;100.00;100466.16;5075920;28;19916;-78
2021/12/24 12:32:24;;;;;;;;;;;;;;;8.44;100.00;100469.56;5061874;28;19928;-78
2021/12/24 12:34:50;;;;;;;;;;;;;;;8.47;100.00;100467.88;5055503;28;20376;-78
2021/12/24 12:37:22;;;;;;;;;;;;;;;8.39;100.00;100468.47;5056008;28;20008;-78
2021/12/24 12:39:50;;;;;;;;;;;;;;;8.36;100.00;100467.44;5055755;28;20241;-78
2021/12/24 12:42:17;;;;;;;;;;;;;;;8.37;100.00;100466.59;5055387;28;20008;-77
2021/12/24 12:44:48;;;;;;;;;;;;;;;8.42;100.00;100472.91;5056129;28;19920;-78
2021/12/24 12:47:22;;;;;;;;;;;;;;;8.37;100.00;100459.63;5056134;28;19947;-78
2021/12/24 12:49:47;;;;;;;;;;;;;;;8.35;100.00;100465.66;5056055;28;20011;-80
2021/12/24 12:52:27;;;;;;;;;;;;;;;8.32;100.00;100460.28;5056158;28;20042;-78
2021/12/24 12:54:56;;;;;;;;;;;;;;;8.26;100.00;100463.56;5063906;28;19978;-77
2021/12/24 12:57:31;;;;;;;;;;;;;;;8.28;100.00;100461.88;5061425;28;19920;-78
2021/12/24 13:00:17;;;;;;;;;;;;;;;8.27;100.00;100461.00;5056226;28;19921;-79
2021/12/24 13:03:07;;;;;;;;;;;;;;;8.31;100.00;100459.38;5066603;28;19928;-77
2021/12/24 13:05:53;;;;;;;;;;;;;;;8.33;100.00;100465.59;5051128;28;20012;-77
2021/12/24 13:08:21;;;;;;;;;;;;;;;8.35;100.00;100449.91;5058040;28;19920;-77
2021/12/24 13:11:05;;;;;;;;;;;;;;;8.37;100.00;100437.75;5058746;28;19947;-78
2021/12/24 13:13:41;;;;;;;;;;;;;;;8.41;100.00;100455.41;5059437;28;19943;-78
2021/12/24 13:16:13;;;;;;;;;;;;;;;8.38;100.00;100460.53;5076472;28;19966;-77
2021/12/24 13:18:42;;;;;;;;;;;;;;;8.38;100.00;100455.28;5059058;28;19921;-79
2021/12/24 13:23:34;;;;;;;;;;;;;;;8.34;100.00;100451.63;5076604;28;20404;-78
2021/12/24 13:26:15;;;;;;;;;;;;;;;8.32;100.00;100457.66;5056637;28;20020;-78
2021/12/24 13:28:57;;;;;;;;;;;;;;;8.34;100.00;100458.63;5044509;28;19921;-77
2021/12/24 13:31:23;;;;;;;;;;;;;;;8.30;100.00;100457.59;5054363;28;19952;-77
2021/12/24 13:33:49;;;;;;;;;;;;;;;8.32;100.00;100450.69;5038590;28;20400;-78
2021/12/24 13:36:22;;;;;;;;;;;;;;;8.32;100.00;100450.69;5047523;28;19924;-78
2021/12/24 13:38:51;;;;;;;;;;;;;;;8.36;100.00;100454.31;5048057;28;20532;-78
2021/12/24 13:41:16;;;;;;;;;;;;;;;8.41;100.00;100448.41;5042798;28;19925;-78
2021/12/24 13:43:42;;;;;;;;;;;;;;;8.33;100.00;100451.56;5057082;28;20367;-78
2021/12/24 13:46:08;;;;;;;;;;;;;;;8.34;100.00;100453.38;5058308;28;20268;-78
2021/12/24 13:56:37;;;;;;;;;;;;;;;8.22;100.00;100459.94;5076243;28;19959;-77
2021/12/24 13:59:03;;;;;;;;;;;;;;;8.19;100.00;100465.06;5057450;28;20285;-77
2021/12/24 14:01:29;;;;;;;;;;;;;;;8.19;100.00;100459.81;5071347;28;20371;-78
2021/12/24 14:03:55;;;;;;;;;;;;;;;8.11;100.00;100461.25;5097739;28;20364;-79
2021/12/24 14:06:21;;;;;;;;;;;;;;;8.09;100.00;100466.44;5097960;28;20309;-78
2021/12/24 14:08:47;;;;;;;;;;;;;;;8.06;100.00;100468.00;5077885;28;19946;-78
2021/12/24 14:11:18;;;;;;;;;;;;;;;8.04;100.00;100470.56;5078563;28;19920;-78
2021/12/24 14:13:53;;;;;;;;;;;;;;;8.02;100.00;100467.00;5077894;28;19924;-78
2021/12/24 14:19:08;;;;;;;;;;;;;;;8.00;100.00;100473.00;5092570;28;19928;-78
2021/12/24 14:24:06;;;;;;;;;;;;;;;7.98;100.00;100464.19;5075426;28;20280;-78
2021/12/24 14:26:34;;;;;;;;;;;;;;;7.97;100.00;100457.16;5057974;28;20307;-78
2021/12/24 14:29:05;;;;;;;;;;;;;;;7.96;100.00;100458.00;5052142;28;19926;-77
2021/12/24 14:31:30;;;;;;;;;;;;;;;7.95;100.00;100458.84;5057706;28;19921;-78
2021/12/24 14:33:55;;;;;;;;;;;;;;;7.88;100.00;100455.97;5056296;28;20014;-78
2021/12/24 14:36:22;;;;;;;;;;;;;;;7.87;100.00;100448.91;5057413;28;20337;-77
2021/12/24 14:38:48;;;;;;;;;;;;;;;7.89;100.00;100451.59;5056917;28;19921;-77
2021/12/24 14:41:15;;;;;;;;;;;;;;;7.87;100.00;100450.66;5057267;28;19928;-77
2021/12/24 14:43:42;;;;;;;;;;;;;;;7.85;100.00;100453.22;5069786;28;20421;-77
2021/12/24 14:46:09;;;;;;;;;;;;;;;7.84;100.00;100456.66;5077287;28;19991;-77
2021/12/24 14:48:36;;;;;;;;;;;;;;;7.83;100.00;100462.75;5072191;28;20067;-77
2021/12/24 14:51:06;;;;;;;;;;;;;;;7.82;100.00;100467.94;5056942;28;19920;-77